createdAt,value
2023-03-23T00:01:20.679Z,70.84
2023-03-23T00:03:47.191Z,71.00
2023-03-23T00:06:18.192Z,71.13
2023-03-23T00:08:47.751Z,70.77
2023-03-23T00:11:25.230Z,70.47
2023-03-23T00:13:54.813Z,69.97
2023-03-23T00:16:21.391Z,70.30
2023-03-23T00:18:48.115Z,70.45
2023-03-23T00:21:14.778Z,70.95
2023-03-23T00:23:41.229Z,71.03
2023-03-23T00:26:07.710Z,70.33
2023-03-23T00:28:34.422Z,70.72
2023-03-23T00:31:00.828Z,70.34
2023-03-23T00:33:27.580Z,70.37
2023-03-23T00:35:54.582Z,69.24
2023-03-23T00:38:21.461Z,69.91
2023-03-23T00:40:48.397Z,70.06
2023-03-23T00:43:14.870Z,70.77
2023-03-23T00:45:41.484Z,70.52
2023-03-23T00:48:08.089Z,71.07
2023-03-23T00:50:39.060Z,69.93
2023-03-23T00:53:05.720Z,69.91
2023-03-23T00:55:32.240Z,70.00
2023-03-23T00:57:58.825Z,69.77
2023-03-23T01:00:25.260Z,70.00
2023-03-23T01:02:52.635Z,69.80
2023-03-23T01:05:19.090Z,69.74
2023-03-23T01:07:45.537Z,69.54
2023-03-23T01:10:13.722Z,69.66
2023-03-23T01:12:40.202Z,70.03
2023-03-23T01:15:07.204Z,69.74
2023-03-23T01:17:33.645Z,69.32
2023-03-23T01:20:00.063Z,69.47
2023-03-23T01:22:26.736Z,69.33
2023-03-23T01:24:53.145Z,69.44
2023-03-23T01:27:19.605Z,69.04
2023-03-23T01:29:46.028Z,68.91
2023-03-23T01:32:12.428Z,68.58
2023-03-23T01:34:38.848Z,68.86
2023-03-23T01:37:09.327Z,68.78
2023-03-23T01:39:35.748Z,68.02
2023-03-23T01:42:02.187Z,68.67
2023-03-23T01:44:28.995Z,67.19
2023-03-23T01:46:56.032Z,66.42
2023-03-23T01:49:22.516Z,65.83
2023-03-23T01:51:48.939Z,65.09
2023-03-23T01:54:15.373Z,65.25
2023-03-23T01:56:42.329Z,65.29
2023-03-23T01:59:08.818Z,65.07
2023-03-23T02:01:37.843Z,64.85
2023-03-23T02:04:04.293Z,64.56
2023-03-23T02:06:30.998Z,64.52
2023-03-23T02:08:57.408Z,63.88
2023-03-23T02:11:36.862Z,63.55
2023-03-23T02:14:03.980Z,63.24
2023-03-23T02:16:30.576Z,64.60
2023-03-23T02:18:57.273Z,63.63
2023-03-23T02:21:23.815Z,63.70
2023-03-23T02:23:51.449Z,62.92
2023-03-23T02:26:17.888Z,62.89
2023-03-23T02:28:44.388Z,64.47
2023-03-23T02:31:12.439Z,64.68
2023-03-23T02:33:38.877Z,63.44
2023-03-23T02:36:05.297Z,62.94
2023-03-23T02:38:32.130Z,65.65
2023-03-23T02:40:58.595Z,65.50
2023-03-23T02:43:25.009Z,65.01
2023-03-23T02:46:01.730Z,65.87
2023-03-23T02:48:28.136Z,65.13
2023-03-23T02:50:54.567Z,64.21
2023-03-23T02:53:21.385Z,65.68
2023-03-23T02:55:47.861Z,65.08
2023-03-23T02:58:14.331Z,65.99
2023-03-23T03:00:40.857Z,64.21
2023-03-23T03:03:07.744Z,64.39
2023-03-23T03:05:34.638Z,65.84
2023-03-23T03:08:01.052Z,65.39
2023-03-23T03:10:27.856Z,64.76
2023-03-23T03:12:54.422Z,63.11
2023-03-23T03:15:20.901Z,64.00
2023-03-23T03:17:47.490Z,62.68
2023-03-23T03:20:15.218Z,63.55
2023-03-23T03:22:45.124Z,63.82
2023-03-23T03:25:18.097Z,63.74
2023-03-23T03:27:45.350Z,63.81
2023-03-23T03:30:13.180Z,63.83
2023-03-23T03:32:40.177Z,64.72
2023-03-23T03:35:07.005Z,64.28
2023-03-23T03:37:33.595Z,64.80
2023-03-23T03:40:00.575Z,64.52
2023-03-23T03:42:27.282Z,64.83
2023-03-23T03:44:53.794Z,64.78
2023-03-23T03:47:20.238Z,65.14
2023-03-23T03:49:46.816Z,64.95
2023-03-23T03:52:13.434Z,65.84
2023-03-23T03:54:41.693Z,64.67
2023-03-23T03:57:09.276Z,65.17
2023-03-23T03:59:35.716Z,64.58
2023-03-23T04:02:02.438Z,64.60
2023-03-23T04:04:29.713Z,64.51
2023-03-23T04:06:56.115Z,64.43
2023-03-23T04:09:22.890Z,64.82
2023-03-23T04:11:49.675Z,64.16
2023-03-23T04:14:16.797Z,64.10
2023-03-23T04:16:54.348Z,63.87
2023-03-23T04:19:21.051Z,63.93
2023-03-23T04:21:50.168Z,63.92
2023-03-23T04:24:23.337Z,64.02
2023-03-23T04:27:02.983Z,64.40
2023-03-23T04:29:29.389Z,64.28
2023-03-23T04:31:57.368Z,64.32
2023-03-23T04:34:24.434Z,64.08
2023-03-23T04:36:56.046Z,63.81
2023-03-23T04:39:25.305Z,64.06
2023-03-23T04:41:52.725Z,64.05
2023-03-23T04:44:22.513Z,63.92
2023-03-23T04:46:50.782Z,63.51
2023-03-23T04:49:22.040Z,64.34
2023-03-23T04:51:48.634Z,63.93
2023-03-23T04:54:15.594Z,63.79
2023-03-23T04:56:42.477Z,64.17
2023-03-23T04:59:08.900Z,63.82
2023-03-23T05:01:38.196Z,63.98
2023-03-23T05:04:07.013Z,64.15
2023-03-23T05:06:33.514Z,63.74
2023-03-23T05:08:59.977Z,63.60
2023-03-23T05:11:26.593Z,64.12
2023-03-23T05:13:53.029Z,64.23
2023-03-23T05:16:19.598Z,64.19
2023-03-23T05:18:47.589Z,63.72
2023-03-23T05:21:15.389Z,63.50
2023-03-23T05:23:42.121Z,64.25
2023-03-23T05:26:08.620Z,63.50
2023-03-23T05:28:35.086Z,63.22
2023-03-23T05:31:01.501Z,63.28
2023-03-23T05:33:27.934Z,63.03
2023-03-23T05:35:54.382Z,63.10
2023-03-23T05:38:20.853Z,64.06
2023-03-23T05:40:47.326Z,62.89
2023-03-23T05:43:13.745Z,63.00
2023-03-23T05:45:40.714Z,62.54
2023-03-23T05:48:07.330Z,63.04
2023-03-23T05:50:34.270Z,62.55
2023-03-23T05:53:00.723Z,62.71
2023-03-23T05:55:27.162Z,62.68
2023-03-23T05:57:53.593Z,62.33
2023-03-23T06:00:24.582Z,62.09
2023-03-23T06:02:52.094Z,62.09
2023-03-23T06:05:18.815Z,63.05
2023-03-23T06:07:45.382Z,63.50
2023-03-23T06:10:12.139Z,62.79
2023-03-23T06:12:38.587Z,62.87
2023-03-23T06:15:05.297Z,62.93
2023-03-23T06:17:31.802Z,63.95
2023-03-23T06:19:58.937Z,62.53
2023-03-23T06:22:26.168Z,63.51
2023-03-23T06:24:52.638Z,61.28
2023-03-23T06:27:19.102Z,61.12
2023-03-23T06:29:45.530Z,60.91
2023-03-23T06:32:11.968Z,61.62
2023-03-23T06:34:38.783Z,61.63
2023-03-23T06:37:06.607Z,60.60
2023-03-23T06:39:33.147Z,60.31
2023-03-23T06:42:01.021Z,59.93
2023-03-23T06:44:27.480Z,60.61
2023-03-23T06:46:53.885Z,59.89
2023-03-23T06:49:21.136Z,58.33
2023-03-23T06:51:47.614Z,59.39
2023-03-23T06:54:14.047Z,56.73
2023-03-23T06:56:40.896Z,56.83
2023-03-23T06:59:08.414Z,55.60
2023-03-23T07:01:34.886Z,56.74
2023-03-23T07:04:01.486Z,56.49
2023-03-23T07:06:28.481Z,54.37
2023-03-23T07:08:54.911Z,53.29
2023-03-23T07:11:21.350Z,53.22
2023-03-23T07:13:47.951Z,54.01
2023-03-23T07:16:14.368Z,51.82
2023-03-23T07:18:40.970Z,51.53
2023-03-23T07:21:07.701Z,51.52
2023-03-23T07:23:34.180Z,51.34
2023-03-23T07:26:00.668Z,50.86
2023-03-23T07:28:27.556Z,51.20
2023-03-23T07:30:53.994Z,51.74
2023-03-23T07:33:20.538Z,50.95
2023-03-23T07:35:47.005Z,50.95
2023-03-23T07:38:13.486Z,50.91
2023-03-23T07:40:40.131Z,51.10
2023-03-23T07:43:06.953Z,51.47
2023-03-23T07:45:33.407Z,50.78
2023-03-23T07:48:00.781Z,51.96
2023-03-23T07:50:27.449Z,51.37
2023-03-23T07:52:53.868Z,51.58
2023-03-23T07:55:20.305Z,52.18
2023-03-23T07:57:46.732Z,50.18
2023-03-23T08:00:20.251Z,50.93
2023-03-23T08:02:46.996Z,50.92
2023-03-23T08:05:14.585Z,51.68
2023-03-23T08:07:41.546Z,50.82
2023-03-23T08:10:11.261Z,51.27
2023-03-23T08:12:37.914Z,51.41
2023-03-23T08:15:04.517Z,51.01
2023-03-23T08:17:30.952Z,51.14
2023-03-23T08:19:57.362Z,51.34
2023-03-23T08:22:23.802Z,51.51
2023-03-23T08:24:50.323Z,51.51
2023-03-23T08:27:16.744Z,52.60
2023-03-23T08:29:43.170Z,52.09
2023-03-23T08:32:09.593Z,52.02
2023-03-23T08:34:36.033Z,52.89
2023-03-23T08:37:02.892Z,52.58
2023-03-23T08:39:31.280Z,52.88
2023-03-23T08:41:57.746Z,53.21
2023-03-23T08:44:24.704Z,53.00
2023-03-23T08:46:55.782Z,53.64
2023-03-23T08:49:22.829Z,53.28
2023-03-23T08:51:49.741Z,53.27
2023-03-23T08:54:16.172Z,53.74
2023-03-23T08:56:43.335Z,53.80
2023-03-23T08:59:10.328Z,53.61
2023-03-23T09:01:37.134Z,53.91
2023-03-23T09:04:03.540Z,53.74
2023-03-23T09:06:30.001Z,53.85
2023-03-23T09:08:57.002Z,54.59
2023-03-23T09:11:23.448Z,55.56
2023-03-23T09:13:49.937Z,55.01
2023-03-23T09:16:16.341Z,55.06
2023-03-23T09:18:42.774Z,55.84
2023-03-23T09:21:19.076Z,55.67
2023-03-23T09:23:46.695Z,56.56
2023-03-23T09:26:13.126Z,57.37
2023-03-23T09:28:39.780Z,57.92
2023-03-23T09:31:06.190Z,58.00
2023-03-23T09:33:36.028Z,59.20
2023-03-23T09:36:15.307Z,60.41
2023-03-23T09:38:42.684Z,60.38
2023-03-23T09:41:09.120Z,62.19
2023-03-23T09:43:35.571Z,60.73
2023-03-23T09:46:02.113Z,60.60
2023-03-23T09:48:28.876Z,63.45
2023-03-23T09:50:55.635Z,65.06
2023-03-23T09:53:22.088Z,63.52
2023-03-23T09:55:50.056Z,64.84
2023-03-23T09:58:17.571Z,65.06
2023-03-23T10:00:44.066Z,65.44
2023-03-23T10:03:10.680Z,66.04
2023-03-23T10:05:37.180Z,66.52
2023-03-23T10:08:03.620Z,64.10
2023-03-23T10:10:30.024Z,64.33
2023-03-23T10:12:59.521Z,64.98
2023-03-23T10:15:25.957Z,64.57
2023-03-23T10:17:52.751Z,64.23
2023-03-23T10:20:20.384Z,64.53
2023-03-23T10:22:46.794Z,64.73
2023-03-23T10:25:14.037Z,66.61
2023-03-23T10:27:40.475Z,65.12
2023-03-23T10:30:06.913Z,64.59
2023-03-23T10:32:33.332Z,62.27
2023-03-23T10:34:59.739Z,62.42
2023-03-23T10:37:26.183Z,61.72
2023-03-23T10:39:52.935Z,61.06
2023-03-23T10:42:19.366Z,60.79
2023-03-23T10:44:46.858Z,61.22
2023-03-23T10:47:14.493Z,60.97
2023-03-23T10:49:41.202Z,60.48
2023-03-23T10:52:07.645Z,61.53
2023-03-23T10:54:34.709Z,61.19
2023-03-23T10:57:03.448Z,60.42
2023-03-23T10:59:30.466Z,60.21
2023-03-23T11:01:57.210Z,61.67
2023-03-23T11:04:24.236Z,61.74
2023-03-23T11:06:50.845Z,61.34
2023-03-23T11:09:18.688Z,60.81
2023-03-23T11:11:45.136Z,61.06
2023-03-23T11:14:11.688Z,60.44
2023-03-23T11:16:38.443Z,59.55
2023-03-23T11:19:04.848Z,61.52
2023-03-23T11:21:31.277Z,59.89
2023-03-23T11:24:09.359Z,60.18
2023-03-23T11:26:36.544Z,60.90
2023-03-23T11:29:02.971Z,61.34
2023-03-23T11:31:29.395Z,60.63
2023-03-23T11:34:05.861Z,61.04
2023-03-23T11:36:32.820Z,62.60
2023-03-23T11:38:59.911Z,64.04
2023-03-23T11:41:26.938Z,63.76
2023-03-23T11:43:53.387Z,63.67
2023-03-23T11:46:19.805Z,63.18
2023-03-23T11:48:46.871Z,64.48
2023-03-23T11:51:13.368Z,63.11
2023-03-23T11:53:40.128Z,64.78
2023-03-23T11:56:06.572Z,64.08
2023-03-23T11:58:34.174Z,65.51
2023-03-23T12:01:00.602Z,65.77
2023-03-23T12:03:27.923Z,66.78
2023-03-23T12:05:54.420Z,67.03
2023-03-23T12:13:21.060Z,67.71
2023-03-23T12:15:47.688Z,67.62
2023-03-23T12:18:14.378Z,67.77
2023-03-23T12:20:42.916Z,68.99
2023-03-23T12:23:09.770Z,69.31
2023-03-23T12:25:36.286Z,68.04
2023-03-23T12:28:02.781Z,68.50
2023-03-23T12:30:29.250Z,68.88
2023-03-23T12:32:56.020Z,69.53
2023-03-23T12:35:24.270Z,68.13
2023-03-23T12:37:51.131Z,67.01
2023-03-23T12:40:18.658Z,68.17
2023-03-23T12:42:45.728Z,66.25
2023-03-23T12:45:13.496Z,67.90
2023-03-23T12:47:39.950Z,66.60
2023-03-23T12:50:06.409Z,66.73
2023-03-23T12:52:33.116Z,66.06
2023-03-23T12:54:59.548Z,65.37
2023-03-23T12:57:28.533Z,63.60
2023-03-23T12:59:54.991Z,65.14
2023-03-23T13:02:21.508Z,66.24
2023-03-23T13:04:49.647Z,64.71
2023-03-23T13:07:17.270Z,64.45
2023-03-23T13:09:43.861Z,64.22
2023-03-23T13:12:10.441Z,64.16
2023-03-23T13:14:37.069Z,63.77
2023-03-23T13:17:04.072Z,63.99
2023-03-23T13:19:30.603Z,63.14
2023-03-23T13:21:57.780Z,64.55
2023-03-23T13:24:24.212Z,63.15
2023-03-23T13:26:50.654Z,62.34
2023-03-23T13:29:19.469Z,62.81
2023-03-23T13:31:45.872Z,63.59
2023-03-23T13:34:13.694Z,63.86
2023-03-23T13:36:40.259Z,63.52
2023-03-23T13:39:08.852Z,62.25
2023-03-23T13:41:35.735Z,60.79
2023-03-23T13:44:02.281Z,59.92
2023-03-23T13:46:29.031Z,60.22
2023-03-23T13:48:55.840Z,57.76
2023-03-23T13:51:24.644Z,58.91
2023-03-23T13:53:52.782Z,58.00
2023-03-23T13:56:20.876Z,59.14
2023-03-23T13:58:48.705Z,57.35
2023-03-23T14:01:17.487Z,57.90
2023-03-23T14:03:44.837Z,56.87
2023-03-23T14:06:11.381Z,57.24
2023-03-23T14:08:37.820Z,55.97
2023-03-23T14:11:04.799Z,57.04
2023-03-23T14:13:31.809Z,54.65
2023-03-23T14:15:58.310Z,55.29
2023-03-23T14:18:24.742Z,56.16
2023-03-23T14:20:51.449Z,54.72
2023-03-23T14:23:18.884Z,55.12
2023-03-23T14:25:46.702Z,54.51
2023-03-23T14:28:13.539Z,54.91
2023-03-23T14:30:39.949Z,55.03
2023-03-23T14:33:06.782Z,54.07
2023-03-23T14:35:33.257Z,54.92
2023-03-23T14:37:59.681Z,55.40
2023-03-23T14:40:26.320Z,54.82
2023-03-23T14:42:55.477Z,55.18
2023-03-23T14:45:21.998Z,55.08
2023-03-23T14:47:48.480Z,54.91
2023-03-23T14:50:16.621Z,55.76
2023-03-23T14:52:43.147Z,57.04
2023-03-23T14:55:09.570Z,56.64
2023-03-23T14:57:36.176Z,56.65
2023-03-23T15:00:02.789Z,57.56
2023-03-23T15:02:29.439Z,57.71
2023-03-23T15:04:56.080Z,56.90
2023-03-23T15:07:22.525Z,57.61
2023-03-23T15:09:48.940Z,58.02
2023-03-23T15:12:15.364Z,58.47
2023-03-23T15:14:41.773Z,57.88
2023-03-23T15:17:08.279Z,57.67
2023-03-23T15:19:34.792Z,57.84
2023-03-23T15:22:01.744Z,57.85
2023-03-23T15:24:28.227Z,57.28
2023-03-23T15:26:54.708Z,57.59
2023-03-23T15:29:26.585Z,57.41
2023-03-23T15:31:53.284Z,57.48
2023-03-23T15:34:19.740Z,57.17
2023-03-23T15:36:46.329Z,57.11
2023-03-23T15:39:12.795Z,57.43
2023-03-23T15:41:39.212Z,57.04
2023-03-23T15:44:05.768Z,57.31
2023-03-23T15:46:32.221Z,57.33
2023-03-23T15:48:58.646Z,58.12
2023-03-23T15:51:25.125Z,57.65
2023-03-23T15:53:51.541Z,57.52
2023-03-23T15:56:18.191Z,58.18
2023-03-23T15:58:45.333Z,57.41
2023-03-23T16:01:11.867Z,57.15
2023-03-23T16:03:38.457Z,57.79
2023-03-23T16:06:04.899Z,57.45
2023-03-23T16:08:31.352Z,57.16
2023-03-23T16:10:57.904Z,57.35
2023-03-23T16:13:24.488Z,57.12
2023-03-23T16:15:51.810Z,56.10
2023-03-23T16:18:18.264Z,56.62
2023-03-23T16:20:44.712Z,56.85
2023-03-23T16:23:11.163Z,56.99
2023-03-23T16:25:39.044Z,56.98
2023-03-23T16:28:05.495Z,56.58
2023-03-23T16:30:31.935Z,56.69
2023-03-23T16:32:58.438Z,56.53
2023-03-23T16:35:24.997Z,57.27
2023-03-23T16:37:51.716Z,57.22
2023-03-23T16:40:35.052Z,57.79
2023-03-23T16:43:01.516Z,56.69
2023-03-23T16:45:35.081Z,57.07
2023-03-23T16:48:01.874Z,56.69
2023-03-23T16:50:28.340Z,57.28
2023-03-23T16:52:54.802Z,57.14
2023-03-23T16:55:21.836Z,57.80
2023-03-23T16:57:48.290Z,57.88
2023-03-23T17:00:15.649Z,58.84
2023-03-23T17:02:42.209Z,58.61
2023-03-23T17:05:09.137Z,59.00
2023-03-23T17:07:35.567Z,59.85
2023-03-23T17:10:02.064Z,60.38
2023-03-23T17:12:32.184Z,60.89
2023-03-23T17:14:58.668Z,60.62
2023-03-23T17:17:25.189Z,61.60
2023-03-23T17:19:51.968Z,60.75
2023-03-23T17:22:18.457Z,60.67
2023-03-23T17:24:46.041Z,61.52
2023-03-23T17:27:12.742Z,61.54
2023-03-23T17:29:39.179Z,61.48
2023-03-23T17:32:05.842Z,62.00
2023-03-23T17:34:32.311Z,62.06
2023-03-23T17:36:58.819Z,62.33
2023-03-23T17:39:25.688Z,62.54
2023-03-23T17:41:52.147Z,62.81
2023-03-23T17:44:18.761Z,62.45
2023-03-23T17:46:45.182Z,62.39
2023-03-23T17:49:11.621Z,62.96
2023-03-23T17:51:38.069Z,63.02
2023-03-23T17:54:04.487Z,63.89
2023-03-23T17:56:31.012Z,65.34
2023-03-23T17:58:57.516Z,64.44
2023-03-23T18:01:23.987Z,64.32
2023-03-23T18:03:50.446Z,65.02
2023-03-23T18:06:16.902Z,64.68
2023-03-23T18:08:43.474Z,65.35
2023-03-23T18:11:09.937Z,65.32
2023-03-23T18:13:36.605Z,65.51
2023-03-23T18:16:04.017Z,67.87
2023-03-23T18:18:30.734Z,68.68
2023-03-23T18:20:57.143Z,68.34
2023-03-23T18:23:23.574Z,69.62
2023-03-23T18:25:49.980Z,69.17
2023-03-23T18:28:17.467Z,69.62
2023-03-23T18:30:49.277Z,71.17
2023-03-23T18:33:16.213Z,70.40
2023-03-23T18:35:43.538Z,70.32
2023-03-23T18:38:10.308Z,70.23
2023-03-23T18:40:36.727Z,70.79
2023-03-23T18:43:03.356Z,71.72
2023-03-23T18:45:33.853Z,71.40
2023-03-23T18:48:00.406Z,71.58
2023-03-23T18:50:27.031Z,71.17
2023-03-23T18:52:53.462Z,71.18
2023-03-23T18:55:20.978Z,72.12
2023-03-23T18:57:49.661Z,72.40
2023-03-23T19:00:16.075Z,72.72
2023-03-23T19:02:42.548Z,73.15
2023-03-23T19:05:09.274Z,73.64
2023-03-23T19:07:35.799Z,74.81
2023-03-23T19:10:02.247Z,75.10
2023-03-23T19:12:28.661Z,75.07
2023-03-23T19:14:55.117Z,74.93
2023-03-23T19:17:21.553Z,75.18
2023-03-23T19:19:48.849Z,75.37
2023-03-23T19:22:15.364Z,74.90
2023-03-23T19:24:41.789Z,74.08
2023-03-23T19:27:08.626Z,74.65
2023-03-23T19:29:36.026Z,75.15
2023-03-23T19:32:03.088Z,75.28
2023-03-23T19:34:30.832Z,75.72
2023-03-23T19:37:05.338Z,77.03
2023-03-23T19:39:34.286Z,76.35
2023-03-23T19:42:01.117Z,76.39
2023-03-23T19:44:28.883Z,76.01
2023-03-23T19:46:56.290Z,75.93
2023-03-23T19:49:22.879Z,75.72
2023-03-23T19:51:49.362Z,76.73
2023-03-23T19:54:15.804Z,77.36
2023-03-23T19:56:43.517Z,77.50
2023-03-23T19:59:10.740Z,77.79
2023-03-23T20:01:37.425Z,78.57
2023-03-23T20:04:05.561Z,79.59
2023-03-23T20:06:33.118Z,81.22
2023-03-23T20:09:00.613Z,82.13
2023-03-23T20:11:27.732Z,81.12
2023-03-23T20:13:55.173Z,81.20
2023-03-23T20:16:21.984Z,80.14
2023-03-23T20:18:50.002Z,80.82
2023-03-23T20:21:20.279Z,80.97
2023-03-23T20:23:46.892Z,80.53
2023-03-23T20:26:13.345Z,80.36
2023-03-23T20:28:40.692Z,81.33
2023-03-23T20:31:19.955Z,81.33
2023-03-23T20:34:00.553Z,81.05
2023-03-23T20:36:29.986Z,80.67
2023-03-23T20:38:57.627Z,80.15
2023-03-23T20:41:24.510Z,81.79
2023-03-23T20:43:51.092Z,81.73
2023-03-23T20:46:21.115Z,81.98
2023-03-23T20:48:49.593Z,80.87
2023-03-23T20:51:16.027Z,82.34
2023-03-23T20:53:42.567Z,81.11
2023-03-23T20:56:09.097Z,81.11
2023-03-23T20:58:35.524Z,79.54
2023-03-23T21:01:03.136Z,79.55
2023-03-23T21:03:29.663Z,79.49
2023-03-23T21:05:56.748Z,79.89
2023-03-23T21:08:23.199Z,81.36
2023-03-23T21:10:49.758Z,80.68
2023-03-23T21:13:16.177Z,80.41
2023-03-23T21:15:42.758Z,79.68
2023-03-23T21:18:09.496Z,78.81
2023-03-23T21:20:36.127Z,78.71
2023-03-23T21:23:02.577Z,78.65
2023-03-23T21:25:34.171Z,78.66
2023-03-23T21:28:01.745Z,77.97
2023-03-23T21:30:28.178Z,77.80
2023-03-23T21:32:54.658Z,76.82
2023-03-23T21:35:21.413Z,77.49
2023-03-23T21:37:48.852Z,77.35
2023-03-23T21:40:16.948Z,78.56
2023-03-23T21:42:43.430Z,80.17
2023-03-23T21:45:10.191Z,78.80
2023-03-23T21:47:36.661Z,77.79
2023-03-23T21:50:04.503Z,77.21
2023-03-23T21:52:31.296Z,76.73
2023-03-23T21:54:59.613Z,76.23
2023-03-23T21:57:26.857Z,76.30
2023-03-23T21:59:53.298Z,75.55
2023-03-23T22:02:19.740Z,75.41
2023-03-23T22:04:46.142Z,74.94
2023-03-23T22:07:12.909Z,74.70
2023-03-23T22:09:41.132Z,75.16
2023-03-23T22:12:07.610Z,74.79
2023-03-23T22:14:34.061Z,74.36
2023-03-23T22:17:00.851Z,74.57
2023-03-23T22:19:27.283Z,75.54
2023-03-23T22:21:53.698Z,74.55
2023-03-23T22:24:20.185Z,74.02
2023-03-23T22:26:46.654Z,74.72
2023-03-23T22:29:13.108Z,74.06
2023-03-23T22:31:40.031Z,74.70
2023-03-23T22:34:06.494Z,74.48
2023-03-23T22:36:33.468Z,74.72
2023-03-23T22:38:59.924Z,75.32
2023-03-23T22:41:26.406Z,75.47
2023-03-23T22:43:52.822Z,75.50
2023-03-23T22:46:19.240Z,74.10
2023-03-23T22:48:45.645Z,74.46
2023-03-23T22:51:12.132Z,75.68
2023-03-23T22:53:38.621Z,74.91
2023-03-23T22:56:05.116Z,73.83
2023-03-23T22:58:31.592Z,75.38
2023-03-23T23:00:58.104Z,74.44
2023-03-23T23:03:24.567Z,74.48
2023-03-23T23:05:50.974Z,74.87
2023-03-23T23:08:18.212Z,74.38
2023-03-23T23:10:44.909Z,74.33
2023-03-23T23:13:11.444Z,74.76
2023-03-23T23:15:38.036Z,75.18
2023-03-23T23:18:05.094Z,74.39
2023-03-23T23:20:31.955Z,76.00
2023-03-23T23:22:58.398Z,75.57
2023-03-23T23:25:24.837Z,76.55
2023-03-23T23:27:51.465Z,76.31
2023-03-23T23:30:17.931Z,77.56
2023-03-23T23:32:44.805Z,76.49
2023-03-23T23:35:11.262Z,76.74
2023-03-23T23:37:38.036Z,77.12
2023-03-23T23:40:07.859Z,76.99
2023-03-23T23:42:34.280Z,76.33
2023-03-23T23:45:00.862Z,76.25
2023-03-23T23:47:27.368Z,75.82
2023-03-23T23:49:53.863Z,75.33
2023-03-23T23:52:20.295Z,75.15
2023-03-23T23:54:48.381Z,75.61
2023-03-23T23:57:15.005Z,75.65
2023-03-23T23:59:41.492Z,75.45
